首页
METAR-TAF:

METAR-TAF

机场 :

Big Piney / Marbleton, 怀俄明州, 美国

纬度: 42-34-44N, 经度: 110-06-11W, 海拔: 2126米

当前天气观测

该预报发布于1小时和14分钟前的00:53 UTC
风速10节,风向西转西南
温度 23°C
湿度 29%
气压 1024 hPa
能見度: 16.1公里

METAR: KBPI 300053Z AUTO 24010KT 10SM 23/04 A3024 RMK AO2 PK WND 25028/0037 LTG DSNT W SLP154 T02280044 $

时间: 20:07 (02:07 UTC)

预报

该预报发布于2小时和32分钟前的23:35 UTC
预报有效从30日的 00点(UTC)到 30日的 24点(UTC)
风速10节,风向西北,有时为18节阵风
能見度: 10公里
散云层高于9000英尺
附近有阵雨
从 30日的 0200点(UTC)
风速7节,风向
能見度: 10公里
散云层高于10000英尺
从 30日的 0500点(UTC)
风速4节,风向多变
能見度: 10公里
散云层高于10000英尺
从 30日的 1700点(UTC)
风速6节,风向南转西南
能見度: 10公里
散云层高于10000英尺
从 30日的 2100点(UTC)
风速10节,风向西南
能見度: 10公里
多云层高于10000英尺

TAF: KBPI 292335Z 3000/3024 31010G18KT P6SM VCSH SCT090 FM300200 35007KT P6SM SCT100 FM300500 VRB04KT P6SM SCT100 FM301700 20006KT P6SM SCT100 FM302100 23010KT P6SM BKN100

超过4000个机场的气象观测和天气预报(METAR&TAF报告)。

可查询的气象台以黄色和红色小点在地图上表示。

将鼠标移到小点上方,可查看气象台名称。

然后点击查看天气观测和预报。

如需切换地图:点击带黑十字的绿色按钮放大地图;点击带横线的绿色按钮缩小地图;或者点击绿色箭头查看邻近地区的地图。


METAR-TAF: